Time;durP1;ratioP1;P1;durP2;ratioP2;P2;SDS_P1;SDS_P2;PMS_P1;PMS_P2;Temp;Humidity;BMP_temperature;BMP_pressure;BME280_temperature;BME280_humidity;BME280_pressure;Samples;Min_cycle;Max_cycle;Signal;HPM_P1;HPM_P2
2023/03/23 00:00:58;;;;;;;45.55;42.20;;;9.60;99.90;;;;;;5246824;28;20391;-64
2023/03/23 00:03:31;;;;;;;47.65;44.42;;;9.60;99.90;;;;;;5250044;28;20032;-64
2023/03/23 00:06:04;;;;;;;43.00;39.70;;;9.70;99.90;;;;;;5251161;28;20023;-67
2023/03/23 00:08:37;;;;;;;44.78;41.42;;;9.60;99.90;;;;;;5250984;28;20032;-65
2023/03/23 00:11:08;;;;;;;42.80;39.70;;;9.50;99.90;;;;;;5250739;28;20411;-64
2023/03/23 00:13:39;;;;;;;45.85;42.70;;;9.80;99.90;;;;;;5230197;28;20031;-67
2023/03/23 00:16:17;;;;;;;46.90;43.50;;;9.60;99.90;;;;;;5230125;28;20108;-66
2023/03/23 00:18:53;;;;;;;42.53;39.60;;;9.70;99.90;;;;;;5229930;28;20025;-64
2023/03/23 00:21:33;;;;;;;44.90;41.90;;;9.60;99.90;;;;;;5230047;28;20040;-64
2023/03/23 00:24:08;;;;;;;43.85;40.80;;;9.60;99.90;;;;;;5230026;28;20551;-67
2023/03/23 00:26:40;;;;;;;48.97;45.92;;;9.60;99.90;;;;;;5229650;28;20075;-65
2023/03/23 00:29:21;;;;;;;43.67;40.72;;;9.80;99.90;;;;;;5229772;28;20120;-65
2023/03/23 00:31:52;;;;;;;44.75;41.65;;;9.80;99.90;;;;;;5229738;28;20116;-65
2023/03/23 00:34:24;;;;;;;45.38;42.25;;;9.70;99.90;;;;;;5229672;28;20029;-64
2023/03/23 00:36:57;;;;;;;44.30;41.30;;;9.60;99.90;;;;;;5229913;28;20377;-65
2023/03/23 00:39:28;;;;;;;42.80;39.85;;;9.60;99.90;;;;;;5229640;28;20491;-67
2023/03/23 00:42:02;;;;;;;49.13;45.47;;;9.70;99.90;;;;;;5229492;28;20037;-68
2023/03/23 00:44:34;;;;;;;49.10;45.72;;;9.50;99.90;;;;;;5229568;28;20105;-67
2023/03/23 00:47:07;;;;;;;45.05;42.30;;;9.50;99.90;;;;;;5229522;28;20120;-65
2023/03/23 00:49:38;;;;;;;43.60;40.97;;;9.60;99.90;;;;;;5229443;28;20492;-65
2023/03/23 00:52:10;;;;;;;46.03;43.03;;;9.50;99.90;;;;;;5229472;28;20037;-67
2023/03/23 00:54:41;;;;;;;45.72;42.72;;;9.60;99.90;;;;;;5232379;28;20077;-64
2023/03/23 00:57:12;;;;;;;45.15;42.28;;;9.50;99.90;;;;;;5249905;28;20032;-68
2023/03/23 00:59:42;;;;;;;52.17;48.92;;;9.50;99.90;;;;;;5249894;28;20039;-68
2023/03/23 01:02:13;;;;;;;42.15;39.35;;;9.40;99.90;;;;;;5249821;28;20036;-68
2023/03/23 01:04:51;;;;;;;48.17;45.17;;;9.50;99.90;;;;;;5250076;28;20021;-64
2023/03/23 01:07:23;;;;;;;44.75;41.92;;;9.50;99.90;;;;;;5249997;28;20027;-64
2023/03/23 01:09:54;;;;;;;48.05;45.00;;;9.50;99.90;;;;;;5249725;28;20017;-68
2023/03/23 01:12:25;;;;;;;45.28;42.10;;;9.50;99.90;;;;;;5245689;28;20400;-68
2023/03/23 01:14:56;;;;;;;47.70;44.50;;;9.50;99.90;;;;;;5239602;28;20064;-65
2023/03/23 01:17:27;;;;;;;41.38;38.58;;;9.50;99.90;;;;;;5249648;28;20484;-67
2023/03/23 01:19:57;;;;;;;45.88;42.95;;;9.50;99.90;;;;;;5249523;28;20024;-64
2023/03/23 01:22:28;;;;;;;45.08;42.05;;;9.70;99.90;;;;;;5244743;28;20442;-65
2023/03/23 01:24:59;;;;;;;42.15;39.45;;;9.60;99.90;;;;;;5228534;28;20564;-68
2023/03/23 01:27:30;;;;;;;45.97;43.08;;;9.50;99.90;;;;;;5228431;28;20122;-67
2023/03/23 01:30:01;;;;;;;45.75;42.70;;;9.50;99.90;;;;;;5228620;28;20025;-66
2023/03/23 01:32:32;;;;;;;45.17;41.95;;;9.60;99.90;;;;;;5234790;28;20032;-68
2023/03/23 01:35:03;;;;;;;47.55;44.63;;;9.70;99.90;;;;;;5228505;28;20025;-69
2023/03/23 01:37:36;;;;;;;45.53;42.25;;;9.70;99.90;;;;;;5228580;28;20429;-64
2023/03/23 01:40:08;;;;;;;45.90;42.85;;;9.70;99.90;;;;;;5228304;28;20175;-66
2023/03/23 01:42:39;;;;;;;47.17;44.17;;;9.60;99.90;;;;;;5238270;28;20033;-65
2023/03/23 01:45:25;;;;;;;42.70;40.08;;;9.60;99.90;;;;;;5228528;28;20029;-66
2023/03/23 01:48:03;;;;;;;40.28;37.78;;;9.60;99.90;;;;;;5228637;28;20074;-68
2023/03/23 01:50:41;;;;;;;50.60;47.30;;;9.50;99.90;;;;;;5228515;28;20029;-65
2023/03/23 01:53:12;;;;;;;41.92;39.15;;;9.70;99.90;;;;;;5228170;28;20171;-65
2023/03/23 01:55:48;;;;;;;39.05;36.65;;;9.60;99.90;;;;;;5209378;28;20115;-68
2023/03/23 01:58:25;;;;;;;44.40;41.55;;;9.60;99.90;;;;;;5228079;28;20403;-67
2023/03/23 02:01:01;;;;;;;44.42;41.53;;;9.60;99.90;;;;;;5228244;28;20365;-67
2023/03/23 02:03:34;;;;;;;37.03;34.53;;;9.40;99.90;;;;;;5228263;28;20052;-64
2023/03/23 02:06:06;;;;;;;46.55;43.65;;;9.40;99.90;;;;;;5228064;28;20029;-67
2023/03/23 02:08:37;;;;;;;49.65;46.65;;;9.60;99.90;;;;;;5228131;28;20036;-66
2023/03/23 02:11:13;;;;;;;41.83;39.13;;;9.70;99.90;;;;;;5227982;28;20037;-67
2023/03/23 02:13:46;;;;;;;44.58;41.80;;;9.40;99.90;;;;;;5227856;28;20059;-68
2023/03/23 02:16:29;;;;;;;46.20;43.20;;;9.50;99.90;;;;;;5227833;28;20108;-68
2023/03/23 02:19:29;;;;;;;44.78;41.75;;;9.70;99.90;;;;;;5227871;28;20036;-68
2023/03/23 02:22:18;;;;;;;47.95;44.88;;;9.40;99.90;;;;;;5227739;28;20033;-68
2023/03/23 02:24:55;;;;;;;41.83;38.70;;;9.50;99.90;;;;;;5227512;28;20021;-64
2023/03/23 02:27:58;;;;;;;44.28;41.33;;;9.60;99.90;;;;;;5227388;28;20110;-67
2023/03/23 02:30:39;;;;;;;44.70;41.45;;;9.60;99.90;;;;;;5196724;28;20048;-68
2023/03/23 02:33:19;;;;;;;47.00;43.85;;;9.40;99.90;;;;;;5227515;28;20024;-65
2023/03/23 02:35:56;;;;;;;47.67;44.30;;;9.50;99.90;;;;;;5227541;28;20388;-67
2023/03/23 02:38:40;;;;;;;42.75;39.90;;;9.60;99.90;;;;;;5227482;28;20480;-67
2023/03/23 02:41:13;;;;;;;46.78;43.47;;;9.70;99.90;;;;;;5227347;28;20016;-67
2023/03/23 02:43:45;;;;;;;47.58;44.50;;;9.60;99.90;;;;;;5227323;28;20033;-66
2023/03/23 02:46:18;;;;;;;40.40;37.90;;;9.50;99.90;;;;;;5227398;28;20020;-64
2023/03/23 02:48:51;;;;;;;43.90;41.33;;;9.80;99.90;;;;;;5227266;28;20028;-64
2023/03/23 02:51:23;;;;;;;41.47;38.90;;;9.70;99.90;;;;;;5227195;28;20028;-68
2023/03/23 02:53:56;;;;;;;42.00;39.13;;;9.50;99.90;;;;;;5227040;28;20032;-66
2023/03/23 02:56:28;;;;;;;44.42;41.13;;;9.60;99.90;;;;;;5226997;28;20024;-64
2023/03/23 02:58:59;;;;;;;48.67;45.58;;;9.70;99.90;;;;;;5227034;28;20040;-67
2023/03/23 03:01:33;;;;;;;48.80;45.90;;;9.60;99.90;;;;;;5226917;28;20380;-68
2023/03/23 03:04:16;;;;;;;49.08;46.17;;;9.50;99.90;;;;;;5227260;28;20396;-64
2023/03/23 03:07:02;;;;;;;47.10;44.22;;;9.70;99.90;;;;;;5209342;28;20009;-67
2023/03/23 03:09:58;;;;;;;43.70;41.00;;;9.60;99.90;;;;;;5226835;28;20353;-64
2023/03/23 03:12:48;;;;;;;45.28;42.47;;;9.60;99.90;;;;;;5226830;28;20586;-67
2023/03/23 03:16:04;;;;;;;52.30;49.30;;;9.50;99.90;;;;;;5226735;28;20476;-68
2023/03/23 03:18:45;;;;;;;47.13;44.33;;;9.80;99.90;;;;;;5182403;28;20036;-67
2023/03/23 03:21:20;;;;;;;41.25;38.65;;;9.60;99.90;;;;;;5226632;28;20033;-67
2023/03/23 03:23:51;;;;;;;46.83;43.78;;;9.70;99.90;;;;;;5226671;28;20108;-67
2023/03/23 03:26:26;;;;;;;43.35;40.63;;;9.60;99.90;;;;;;5226398;28;20029;-68
2023/03/23 03:28:57;;;;;;;42.72;40.15;;;9.50;99.90;;;;;;5226408;28;20053;-67
2023/03/23 03:31:32;;;;;;;42.97;40.28;;;9.70;99.90;;;;;;5226451;28;20039;-67
2023/03/23 03:34:03;;;;;;;40.20;37.70;;;9.70;99.90;;;;;;5226418;28;20033;-64
2023/03/23 03:36:35;;;;;;;44.13;41.33;;;9.60;99.90;;;;;;5225868;28;20368;-67
2023/03/23 03:39:08;;;;;;;41.90;39.20;;;9.70;99.90;;;;;;5226471;28;20039;-68
2023/03/23 03:41:39;;;;;;;42.40;39.50;;;9.70;99.90;;;;;;5226428;28;20036;-67
2023/03/23 03:44:10;;;;;;;45.95;42.85;;;9.60;99.90;;;;;;5226507;28;20106;-65
2023/03/23 03:46:41;;;;;;;42.10;39.38;;;9.70;99.90;;;;;;5226269;28;20028;-68
2023/03/23 03:49:12;;;;;;;46.50;43.47;;;9.80;99.90;;;;;;5226298;28;20025;-68
2023/03/23 03:51:43;;;;;;;48.60;45.53;;;9.80;99.90;;;;;;5208388;28;20538;-64
2023/03/23 03:54:15;;;;;;;49.40;46.30;;;9.60;99.90;;;;;;5226237;28;20025;-65
2023/03/23 03:56:46;;;;;;;46.03;43.00;;;9.80;99.90;;;;;;5226139;28;20056;-68
2023/03/23 03:59:17;;;;;;;49.05;45.70;;;9.80;99.90;;;;;;5226252;28;20076;-64
2023/03/23 04:01:53;;;;;;;48.20;44.92;;;9.80;99.90;;;;;;5226113;28;20033;-64
2023/03/23 04:04:24;;;;;;;48.88;45.28;;;9.80;99.90;;;;;;5226315;28;20033;-66
2023/03/23 04:06:55;;;;;;;46.20;43.17;;;9.70;99.90;;;;;;5226280;28;20028;-67
2023/03/23 04:09:26;;;;;;;43.42;40.60;;;9.70;99.90;;;;;;5226295;28;20051;-64
2023/03/23 04:11:57;;;;;;;49.40;46.10;;;9.80;99.90;;;;;;5226199;28;20031;-67
2023/03/23 04:14:28;;;;;;;46.42;43.42;;;9.60;99.90;;;;;;5226203;28;20021;-66
2023/03/23 04:16:59;;;;;;;45.10;42.30;;;9.70;99.90;;;;;;5226380;28;20036;-67
2023/03/23 04:19:32;;;;;;;45.13;42.42;;;9.80;99.90;;;;;;5226402;28;20032;-68
2023/03/23 04:22:05;;;;;;;44.22;41.42;;;9.80;99.90;;;;;;5226185;28;20090;-68
2023/03/23 04:24:35;;;;;;;39.92;37.40;;;9.90;99.90;;;;;;5226210;28;20025;-67
2023/03/23 04:27:06;;;;;;;46.65;43.65;;;9.70;99.90;;;;;;5225847;28;20099;-67
2023/03/23 04:29:37;;;;;;;40.90;38.03;;;9.80;99.90;;;;;;5208411;28;20025;-66
2023/03/23 04:32:08;;;;;;;49.25;46.05;;;9.70;99.90;;;;;;5226122;28;20025;-65
2023/03/23 04:34:39;;;;;;;42.40;39.60;;;9.60;99.90;;;;;;5225954;28;20021;-67
2023/03/23 04:37:10;;;;;;;47.03;44.20;;;9.60;99.90;;;;;;5226117;28;20044;-65
2023/03/23 04:39:45;;;;;;;44.55;41.85;;;9.60;99.90;;;;;;5226153;28;20083;-67
2023/03/23 04:42:15;;;;;;;41.40;39.00;;;9.80;99.90;;;;;;5225787;28;20029;-68
2023/03/23 04:44:55;;;;;;;43.22;40.60;;;9.70;99.90;;;;;;5226066;28;20078;-67
2023/03/23 04:47:30;;;;;;;49.67;46.80;;;9.80;99.90;;;;;;5225932;28;20400;-68
2023/03/23 04:50:01;;;;;;;44.70;42.05;;;9.80;99.90;;;;;;5228215;28;20094;-64
2023/03/23 04:52:32;;;;;;;41.10;38.60;;;9.70;99.90;;;;;;5229702;28;20558;-64
2023/03/23 04:55:03;;;;;;;43.13;40.53;;;9.70;99.90;;;;;;5229498;28;20025;-65
2023/03/23 04:57:35;;;;;;;42.38;39.75;;;9.70;99.90;;;;;;5229340;28;20767;-66
2023/03/23 05:00:12;;;;;;;41.88;39.33;;;9.80;99.90;;;;;;5229480;28;20108;-65
2023/03/23 05:02:46;;;;;;;39.97;37.55;;;9.80;99.90;;;;;;5229383;28;20086;-67
2023/03/23 05:05:18;;;;;;;45.92;43.13;;;9.80;99.90;;;;;;5229397;28;20021;-64
2023/03/23 05:07:49;;;;;;;44.80;41.90;;;9.90;99.90;;;;;;5229261;28;20451;-64
2023/03/23 05:10:20;;;;;;;47.05;43.47;;;9.80;99.90;;;;;;5229149;28;20053;-64
2023/03/23 05:12:53;;;;;;;51.83;47.95;;;9.80;99.90;;;;;;5229016;28;20055;-68
2023/03/23 05:15:23;;;;;;;42.17;39.33;;;9.80;99.90;;;;;;5229214;28;20036;-66
2023/03/23 05:17:55;;;;;;;48.13;45.22;;;9.80;99.90;;;;;;5228931;28;20029;-66
2023/03/23 05:20:27;;;;;;;43.60;40.90;;;9.90;99.90;;;;;;5229042;28;20021;-64
2023/03/23 05:22:59;;;;;;;37.47;35.17;;;9.90;99.90;;;;;;5228874;28;20041;-64
2023/03/23 05:25:29;;;;;;;40.67;38.15;;;9.80;99.90;;;;;;5228878;28;20469;-66
2023/03/23 05:28:01;;;;;;;42.70;40.00;;;9.70;99.90;;;;;;5228441;28;20053;-67
2023/03/23 05:30:32;;;;;;;44.22;41.72;;;9.70;99.90;;;;;;5228837;28;20372;-65
2023/03/23 05:33:03;;;;;;;44.60;42.08;;;9.70;99.90;;;;;;5228908;28;20029;-64
2023/03/23 05:35:34;;;;;;;40.78;38.30;;;9.80;99.90;;;;;;5228793;28;20009;-67
2023/03/23 05:38:05;;;;;;;44.08;41.65;;;9.80;99.90;;;;;;5228567;28;20495;-68
2023/03/23 05:40:37;;;;;;;42.15;39.83;;;9.80;99.90;;;;;;5228559;28;20017;-67
2023/03/23 05:43:08;;;;;;;45.95;43.40;;;9.70;99.90;;;;;;5228347;28;20120;-68
2023/03/23 05:45:39;;;;;;;38.13;35.97;;;9.80;99.90;;;;;;5228426;28;20021;-66
2023/03/23 05:48:10;;;;;;;41.42;38.92;;;9.70;99.90;;;;;;5228300;28;20077;-68
2023/03/23 05:50:41;;;;;;;43.33;40.75;;;9.80;99.90;;;;;;5228408;28;20025;-68
2023/03/23 05:53:12;;;;;;;46.75;44.05;;;9.70;99.90;;;;;;5228228;28;20380;-67
2023/03/23 05:55:43;;;;;;;42.97;40.58;;;9.80;99.90;;;;;;5210150;28;20476;-68
2023/03/23 05:58:14;;;;;;;40.75;38.53;;;9.90;99.90;;;;;;5228124;28;20032;-65
2023/03/23 06:00:46;;;;;;;37.33;35.22;;;9.80;99.90;;;;;;5227627;28;20017;-64
2023/03/23 06:03:17;;;;;;;41.05;38.75;;;9.80;99.90;;;;;;5227935;28;20091;-64
2023/03/23 06:05:48;;;;;;;37.00;34.88;;;9.90;99.90;;;;;;5228022;28;20025;-68
2023/03/23 06:08:19;;;;;;;37.58;35.45;;;9.80;99.90;;;;;;5228102;28;20384;-67
2023/03/23 06:10:50;;;;;;;42.35;40.10;;;9.70;99.90;;;;;;5227701;28;20029;-65
2023/03/23 06:13:22;;;;;;;39.65;37.50;;;9.80;99.90;;;;;;5227833;28;20032;-67
2023/03/23 06:15:58;;;;;;;45.05;42.65;;;9.70;99.90;;;;;;5227754;28;20048;-67
2023/03/23 06:18:33;;;;;;;39.13;36.90;;;9.80;99.90;;;;;;5227852;28;20036;-64
2023/03/23 06:21:04;;;;;;;37.67;35.58;;;9.90;99.90;;;;;;5227643;28;20480;-68
2023/03/23 06:23:35;;;;;;;40.08;37.83;;;9.80;99.90;;;;;;5227703;28;20071;-65
2023/03/23 06:26:08;;;;;;;39.10;36.90;;;10.10;99.90;;;;;;5227267;28;20104;-64
2023/03/23 06:28:39;;;;;;;34.67;32.75;;;9.80;99.90;;;;;;5229661;28;20057;-64
2023/03/23 06:31:11;;;;;;;37.95;35.95;;;9.90;99.90;;;;;;5239202;28;20498;-67
2023/03/23 06:33:41;;;;;;;38.00;35.90;;;9.80;99.90;;;;;;5248021;28;20361;-68
2023/03/23 06:36:12;;;;;;;36.55;34.55;;;9.80;99.90;;;;;;5247842;28;20020;-64
2023/03/23 06:38:44;;;;;;;39.75;37.50;;;9.90;99.90;;;;;;5248168;28;20052;-65
2023/03/23 06:41:15;;;;;;;36.92;34.88;;;9.90;99.90;;;;;;5247856;28;20032;-65
2023/03/23 06:43:46;;;;;;;41.80;39.47;;;10.00;99.90;;;;;;5248092;28;20028;-63
2023/03/23 06:46:16;;;;;;;39.08;36.95;;;9.90;99.90;;;;;;5247968;28;20019;-65
2023/03/23 06:48:49;;;;;;;37.50;35.40;;;9.90;99.90;;;;;;5247964;28;20029;-67
2023/03/23 06:51:20;;;;;;;38.65;36.55;;;10.00;99.90;;;;;;5248320;28;20791;-68
2023/03/23 06:53:51;;;;;;;37.90;35.85;;;10.10;99.90;;;;;;5243135;28;20029;-67
2023/03/23 06:56:22;;;;;;;33.83;31.80;;;10.00;99.90;;;;;;5226911;28;20025;-67
2023/03/23 06:58:53;;;;;;;32.50;30.73;;;9.90;99.90;;;;;;5227136;28;20087;-67
2023/03/23 07:01:24;;;;;;;36.97;34.97;;;10.10;99.90;;;;;;5226940;28;20361;-65
2023/03/23 07:03:58;;;;;;;35.10;33.13;;;10.10;99.90;;;;;;5209250;28;20041;-67
2023/03/23 07:06:29;;;;;;;36.50;34.50;;;10.10;99.90;;;;;;5227038;28;20387;-64
2023/03/23 07:09:00;;;;;;;61.70;57.35;;;10.10;99.90;;;;;;5227015;28;20044;-68
2023/03/23 07:11:32;;;;;;;33.95;32.05;;;10.10;99.90;;;;;;5226100;28;20065;-68
2023/03/23 07:14:04;;;;;;;35.63;33.60;;;10.10;99.90;;;;;;5226931;28;20025;-66
2023/03/23 07:16:35;;;;;;;34.75;32.75;;;10.00;99.90;;;;;;5226826;28;20353;-68
2023/03/23 07:19:05;;;;;;;34.10;32.20;;;10.00;99.90;;;;;;5226779;28;20027;-68
2023/03/23 07:21:36;;;;;;;36.47;34.47;;;10.10;99.90;;;;;;5226538;28;20420;-69
2023/03/23 07:24:13;;;;;;;31.98;30.02;;;10.10;99.90;;;;;;5226825;28;20449;-68
2023/03/23 07:26:44;;;;;;;36.30;34.17;;;10.20;99.90;;;;;;5226382;28;20104;-65
2023/03/23 07:29:15;;;;;;;35.00;32.83;;;10.20;99.90;;;;;;5226708;28;20452;-68
2023/03/23 07:31:46;;;;;;;37.80;35.55;;;10.10;99.90;;;;;;5226615;28;20024;-68
2023/03/23 07:34:16;;;;;;;38.67;36.47;;;10.00;99.90;;;;;;5226670;28;20029;-68
2023/03/23 07:36:47;;;;;;;38.03;35.92;;;10.00;99.90;;;;;;5226590;28;20442;-68
2023/03/23 07:39:18;;;;;;;35.90;33.80;;;10.10;99.90;;;;;;5226489;28;20025;-68
2023/03/23 07:41:49;;;;;;;39.20;36.90;;;10.10;99.90;;;;;;5226488;28;20036;-69
2023/03/23 07:44:20;;;;;;;36.25;34.25;;;10.10;99.90;;;;;;5226443;28;20033;-68
2023/03/23 07:46:51;;;;;;;36.08;34.00;;;10.00;99.90;;;;;;5226579;28;20056;-69
2023/03/23 07:49:22;;;;;;;39.00;36.80;;;10.10;99.90;;;;;;5226360;28;20075;-68
2023/03/23 07:51:53;;;;;;;38.63;36.58;;;9.90;99.90;;;;;;5208401;28;20029;-68
2023/03/23 07:54:24;;;;;;;40.17;37.97;;;10.00;99.90;;;;;;5226274;28;20114;-69
2023/03/23 07:56:55;;;;;;;33.80;32.00;;;10.00;99.90;;;;;;5226270;28;20040;-68
2023/03/23 07:59:26;;;;;;;40.60;38.45;;;10.00;99.90;;;;;;5226386;28;20083;-69
2023/03/23 08:01:58;;;;;;;39.95;37.83;;;10.00;99.90;;;;;;5226241;28;20029;-69
2023/03/23 08:04:29;;;;;;;35.35;33.33;;;10.10;99.90;;;;;;5224985;28;20029;-69
2023/03/23 08:06:59;;;;;;;39.47;37.30;;;10.00;99.90;;;;;;5226728;28;20444;-69
2023/03/23 08:09:31;;;;;;;33.65;31.83;;;10.10;99.90;;;;;;5235349;28;20029;-68
2023/03/23 08:12:02;;;;;;;37.10;35.00;;;10.10;99.90;;;;;;5227832;28;20029;-66
2023/03/23 08:14:33;;;;;;;36.67;34.67;;;10.10;99.90;;;;;;5226040;28;20479;-66
2023/03/23 08:17:04;;;;;;;37.67;35.58;;;10.20;99.90;;;;;;5226063;28;20025;-65
2023/03/23 08:19:36;;;;;;;38.47;36.45;;;10.20;99.90;;;;;;5226134;28;20033;-68
2023/03/23 08:22:07;;;;;;;35.22;32.92;;;10.20;99.90;;;;;;5225971;28;20029;-69
2023/03/23 08:24:38;;;;;;;35.92;33.92;;;10.40;99.90;;;;;;5229159;28;20026;-67
2023/03/23 08:27:09;;;;;;;38.75;36.30;;;10.40;99.90;;;;;;5229606;28;20041;-65
2023/03/23 08:29:40;;;;;;;40.28;37.80;;;10.30;99.90;;;;;;5229678;28;20036;-69
2023/03/23 08:32:12;;;;;;;39.38;37.08;;;10.30;99.90;;;;;;5229844;28;20028;-69
2023/03/23 08:34:42;;;;;;;37.50;35.22;;;10.20;99.90;;;;;;5229733;28;20025;-66
2023/03/23 08:37:14;;;;;;;39.53;37.22;;;10.30;99.90;;;;;;5229673;28;20026;-69
2023/03/23 08:39:45;;;;;;;35.20;33.20;;;10.10;99.90;;;;;;5229701;28;20079;-68
2023/03/23 08:42:16;;;;;;;40.42;38.17;;;10.30;99.90;;;;;;5229641;28;20033;-65
2023/03/23 08:44:46;;;;;;;37.75;35.58;;;10.20;99.90;;;;;;5229522;28;20078;-68
2023/03/23 08:47:18;;;;;;;34.97;32.97;;;10.20;99.90;;;;;;5229646;28;20017;-67
2023/03/23 08:49:52;;;;;;;41.22;38.92;;;10.10;99.90;;;;;;5229526;28;20025;-68
2023/03/23 08:52:23;;;;;;;35.10;33.13;;;10.30;99.90;;;;;;5229502;28;20079;-67
2023/03/23 08:54:55;;;;;;;37.85;35.65;;;10.20;99.90;;;;;;5229416;28;20021;-69
2023/03/23 08:57:25;;;;;;;35.53;33.42;;;10.20;99.90;;;;;;5229358;28;20108;-67
2023/03/23 08:59:59;;;;;;;35.72;33.42;;;10.50;99.90;;;;;;5229445;28;20512;-65
2023/03/23 09:02:32;;;;;;;39.70;37.30;;;10.50;99.90;;;;;;5229137;28;20040;-65
2023/03/23 09:05:03;;;;;;;39.75;37.22;;;10.40;99.90;;;;;;5229185;28;20404;-66
2023/03/23 09:07:34;;;;;;;36.08;33.90;;;10.40;99.90;;;;;;5229142;28;20031;-69
2023/03/23 09:10:05;;;;;;;36.63;34.35;;;10.10;99.90;;;;;;5229126;28;20025;-66
2023/03/23 09:12:37;;;;;;;40.30;37.70;;;10.10;99.90;;;;;;5240317;28;20044;-65
2023/03/23 09:15:09;;;;;;;36.75;34.28;;;10.10;99.90;;;;;;5229172;28;20021;-65
2023/03/23 09:17:43;;;;;;;38.42;36.10;;;10.20;99.90;;;;;;5228984;28;20104;-69
2023/03/23 09:20:16;;;;;;;37.50;35.38;;;10.30;99.90;;;;;;5229208;28;20040;-64
2023/03/23 09:22:49;;;;;;;37.88;35.67;;;10.20;99.90;;;;;;5228934;28;20075;-63
2023/03/23 09:25:24;;;;;;;36.45;34.45;;;10.30;99.90;;;;;;5229189;28;20017;-65
2023/03/23 09:27:57;;;;;;;34.83;32.92;;;10.30;99.90;;;;;;5228796;28;20492;-64
2023/03/23 09:30:31;;;;;;;36.00;33.92;;;10.10;99.90;;;;;;5229027;28;20021;-64
2023/03/23 09:33:03;;;;;;;35.15;33.10;;;10.30;99.90;;;;;;5228973;28;20029;-66
2023/03/23 09:35:37;;;;;;;36.78;34.70;;;10.10;99.90;;;;;;5210034;28;20021;-67
2023/03/23 09:38:12;;;;;;;36.67;34.47;;;10.40;99.90;;;;;;5228882;28;20025;-67
2023/03/23 09:40:48;;;;;;;39.03;36.80;;;10.20;99.90;;;;;;5228696;28;20067;-64
2023/03/23 09:43:41;;;;;;;36.47;34.38;;;10.40;99.90;;;;;;5228531;28;20033;-69
2023/03/23 09:46:27;;;;;;;31.88;30.17;;;10.40;99.90;;;;;;5246348;28;20038;-68
2023/03/23 09:49:22;;;;;;;31.70;30.00;;;10.30;99.90;;;;;;5228435;28;20457;-66
2023/03/23 09:52:15;;;;;;;34.97;33.00;;;10.20;99.90;;;;;;5228543;28;20060;-65
2023/03/23 09:54:54;;;;;;;29.73;28.02;;;10.50;99.90;;;;;;5228298;28;20071;-65
2023/03/23 09:57:47;;;;;;;32.88;31.08;;;10.70;99.90;;;;;;5228380;28;20036;-69
2023/03/23 10:00:37;;;;;;;34.38;32.58;;;10.60;99.90;;;;;;5228363;28;20033;-65
2023/03/23 10:03:17;;;;;;;34.03;32.22;;;10.60;99.90;;;;;;5228085;28;20033;-65
2023/03/23 10:05:51;;;;;;;34.70;32.70;;;10.40;99.90;;;;;;5227985;28;20029;-65
2023/03/23 10:08:27;;;;;;;33.78;31.92;;;10.40;99.90;;;;;;5227915;28;20072;-68
2023/03/23 10:11:13;;;;;;;31.00;29.13;;;10.30;99.90;;;;;;5227251;28;20021;-68
2023/03/23 10:14:06;;;;;;;32.38;30.58;;;10.40;99.90;;;;;;5227640;28;20099;-66
2023/03/23 10:17:19;;;;;;;40.40;37.95;;;10.50;99.90;;;;;;5227648;28;20147;-67
2023/03/23 10:20:16;;;;;;;36.28;34.17;;;10.60;99.90;;;;;;5165070;28;20171;-68
2023/03/23 10:23:19;;;;;;;31.23;29.55;;;10.60;99.90;;;;;;5248245;28;20071;-68
2023/03/23 10:26:02;;;;;;;33.70;31.98;;;10.70;99.90;;;;;;5205404;28;20483;-67
2023/03/23 10:28:36;;;;;;;32.00;30.30;;;10.50;99.90;;;;;;5230242;28;20064;-68
2023/03/23 10:31:30;;;;;;;35.97;34.08;;;10.40;99.90;;;;;;5248330;28;20029;-68
2023/03/23 10:34:32;;;;;;;35.00;33.17;;;10.40;99.90;;;;;;5231496;28;20064;-68
2023/03/23 10:37:11;;;;;;;34.00;32.10;;;10.50;99.90;;;;;;5234822;28;20060;-68
2023/03/23 10:39:57;;;;;;;33.60;31.70;;;10.40;99.90;;;;;;5248262;28;20020;-65
2023/03/23 10:42:32;;;;;;;35.03;33.03;;;10.40;99.90;;;;;;5247954;28;20029;-68
2023/03/23 10:45:35;;;;;;;36.22;34.03;;;10.50;99.90;;;;;;5248336;28;20098;-68
2023/03/23 10:48:32;;;;;;;32.47;30.45;;;10.70;99.90;;;;;;5228646;28;20048;-68
2023/03/23 10:51:09;;;;;;;34.88;32.53;;;10.70;99.90;;;;;;5242961;28;20037;-68
2023/03/23 10:53:49;;;;;;;37.38;34.67;;;10.80;99.90;;;;;;5229821;28;20039;-68
2023/03/23 10:56:27;;;;;;;35.70;33.40;;;10.70;99.90;;;;;;5229561;28;20045;-68
2023/03/23 10:58:58;;;;;;;33.20;31.05;;;10.70;99.90;;;;;;5247557;28;20032;-68
2023/03/23 11:01:32;;;;;;;32.67;30.67;;;10.90;99.90;;;;;;5247673;28;20048;-68
2023/03/23 11:04:04;;;;;;;32.33;30.42;;;10.90;99.90;;;;;;5247565;28;20081;-68
2023/03/23 11:06:39;;;;;;;36.47;34.42;;;10.70;99.90;;;;;;5247635;28;20041;-69
2023/03/23 11:09:17;;;;;;;31.30;29.55;;;10.80;99.90;;;;;;5247605;28;20043;-68
2023/03/23 11:11:55;;;;;;;32.15;30.38;;;10.60;99.90;;;;;;5247459;28;20021;-65
2023/03/23 11:14:32;;;;;;;33.45;31.63;;;10.60;99.90;;;;;;5247482;28;20021;-69
2023/03/23 11:17:19;;;;;;;30.55;28.65;;;10.60;99.90;;;;;;5247501;28;20039;-67
2023/03/23 11:19:51;;;;;;;32.75;30.83;;;10.70;99.90;;;;;;5247462;28;20028;-67
2023/03/23 11:22:32;;;;;;;35.03;33.10;;;10.80;99.90;;;;;;5247313;28;20036;-65
2023/03/23 11:25:05;;;;;;;32.85;30.88;;;10.60;99.90;;;;;;5247279;28;20362;-69
2023/03/23 11:27:40;;;;;;;33.17;31.33;;;10.70;99.90;;;;;;5247075;28;20025;-68
2023/03/23 11:30:31;;;;;;;35.05;33.25;;;10.60;99.90;;;;;;5247323;28;20388;-68
2023/03/23 11:33:03;;;;;;;33.17;31.23;;;10.90;99.90;;;;;;5247452;28;20378;-68
2023/03/23 11:35:34;;;;;;;29.92;28.20;;;10.70;99.90;;;;;;5229283;28;20028;-69
2023/03/23 11:38:07;;;;;;;33.25;31.45;;;10.80;99.90;;;;;;5247246;28;20111;-68
2023/03/23 11:40:48;;;;;;;37.10;34.83;;;10.80;99.90;;;;;;5247130;28;20043;-69
2023/03/23 11:43:23;;;;;;;33.20;31.25;;;11.00;99.90;;;;;;5247115;28;20131;-69
2023/03/23 11:46:26;;;;;;;34.17;32.28;;;11.10;99.90;;;;;;5247076;28;20021;-69
2023/03/23 11:49:08;;;;;;;36.17;34.20;;;10.80;99.90;;;;;;5247074;28;20050;-68
2023/03/23 11:51:47;;;;;;;36.33;34.35;;;10.90;99.90;;;;;;5247175;28;20036;-68
2023/03/23 11:54:38;;;;;;;34.95;33.08;;;11.10;99.90;;;;;;5247040;28;20016;-68
2023/03/23 11:57:11;;;;;;;34.40;32.58;;;10.90;99.90;;;;;;5246965;28;20035;-65
2023/03/23 11:59:42;;;;;;;32.95;31.20;;;10.80;99.90;;;;;;5250783;28;20024;-65
2023/03/23 12:02:32;;;;;;;34.40;32.50;;;11.00;99.90;;;;;;5251403;28;20023;-68
2023/03/23 12:05:21;;;;;;;38.77;36.77;;;10.80;99.90;;;;;;5251691;28;20021;-68
2023/03/23 12:08:04;;;;;;;34.67;32.83;;;10.80;99.90;;;;;;5251346;28;20021;-68
2023/03/23 12:10:51;;;;;;;33.95;32.17;;;10.90;99.90;;;;;;5251333;28;20020;-68
2023/03/23 12:13:52;;;;;;;37.55;35.55;;;11.00;99.90;;;;;;5251097;28;20532;-68
2023/03/23 12:16:28;;;;;;;;;;;11.10;99.90;;;;;;5251443;28;20017;-68
2023/03/23 12:19:11;;;;;;;37.22;34.72;;;10.80;99.90;;;;;;5249308;28;19912;-69
2023/03/23 12:21:55;;;;;;;38.05;35.58;;;10.90;99.90;;;;;;5250870;28;20502;-68
2023/03/23 12:24:51;;;;;;;65.03;60.45;;;11.10;99.90;;;;;;5248817;28;20028;-68
2023/03/23 12:27:40;;;;;;;37.00;34.90;;;11.20;99.90;;;;;;5242819;28;20044;-68
2023/03/23 12:30:30;;;;;;;36.03;33.97;;;10.90;99.90;;;;;;5230043;28;20120;-68
2023/03/23 12:33:28;;;;;;;38.55;36.35;;;11.20;99.90;;;;;;5230012;28;20016;-69
2023/03/23 12:36:19;;;;;;;38.15;36.03;;;11.00;99.90;;;;;;5229904;28;20040;-69
2023/03/23 12:39:04;;;;;;;40.05;37.65;;;11.00;99.90;;;;;;5182455;28;20461;-68
2023/03/23 12:42:13;;;;;;;38.75;36.63;;;11.00;99.90;;;;;;5229628;28;20025;-68
2023/03/23 12:44:52;;;;;;;36.42;34.22;;;11.00;99.90;;;;;;5145926;28;20035;-68
2023/03/23 12:47:46;;;;;;;40.08;37.72;;;11.00;99.90;;;;;;5129914;28;20034;-69
2023/03/23 12:50:25;;;;;;;38.22;36.13;;;10.90;99.90;;;;;;5145887;28;20030;-68
2023/03/23 12:53:25;;;;;;;38.00;35.92;;;10.60;99.90;;;;;;5146026;28;20038;-67
2023/03/23 12:56:13;;;;;;;35.97;34.10;;;10.80;99.90;;;;;;5145617;28;20118;-67
2023/03/23 12:58:53;;;;;;;39.78;37.65;;;10.80;99.90;;;;;;5146007;28;20041;-67
2023/03/23 13:01:28;;;;;;;33.75;31.98;;;11.00;99.90;;;;;;5145802;28;20118;-67
2023/03/23 13:04:16;;;;;;;33.67;31.83;;;11.00;99.90;;;;;;5163179;28;20129;-68
2023/03/23 13:06:48;;;;;;;33.70;31.77;;;11.00;99.90;;;;;;5165920;28;20115;-68
2023/03/23 13:09:50;;;;;;;34.97;33.08;;;10.90;99.90;;;;;;5163009;28;20120;-66
2023/03/23 13:12:22;;;;;;;35.13;33.15;;;10.70;99.90;;;;;;5165587;28;20034;-68
2023/03/23 13:15:03;;;;;;;34.33;32.42;;;10.80;99.90;;;;;;5183115;28;20473;-68
2023/03/23 13:18:11;;;;;;;34.00;32.20;;;10.90;99.90;;;;;;5228947;28;20040;-68